Time;durP1;ratioP1;P1;durP2;ratioP2;P2;SDS_P1;SDS_P2;PMS_P1;PMS_P2;Temp;Humidity;BMP_temperature;BMP_pressure;BME280_temperature;BME280_humidity;BME280_pressure;Samples;Min_cycle;Max_cycle;Signal;HPM_P1;HPM_P2
2021/05/07 00:00:18;;;;;;;9.77;2.43;;;;;;;8.35;73.02;99176.54;125457;1104;22759;-58
2021/05/07 00:03:07;;;;;;;10.50;3.00;;;;;;;8.34;73.29;99184.11;125566;1104;22766;-60
2021/05/07 00:05:36;;;;;;;12.30;3.90;;;;;;;8.33;73.25;99179.05;125493;1104;22734;-60
2021/05/07 00:08:06;;;;;;;9.90;2.93;;;;;;;8.33;73.24;99179.05;125596;1097;28317;-59
2021/05/07 00:10:39;;;;;;;10.63;2.73;;;;;;;8.33;73.49;99179.05;125751;1104;22752;-59
2021/05/07 00:13:08;;;;;;;10.43;2.47;;;;;;;8.34;73.66;99186.16;125538;1094;22738;-57
2021/05/07 00:15:37;;;;;;;12.47;3.33;;;;;;;8.32;74.44;99178.28;125571;1097;26627;-56
2021/05/07 00:18:07;;;;;;;9.70;2.33;;;;;;;8.30;73.73;99183.56;125544;1104;23757;-60
2021/05/07 00:20:36;;;;;;;8.75;2.40;;;;;;;8.29;73.90;99184.83;125510;1104;24279;-60
2021/05/07 00:23:06;;;;;;;10.00;2.20;;;;;;;8.25;73.94;99178.72;125789;1097;26190;-61
2021/05/07 00:25:36;;;;;;;8.30;2.73;;;;;;;8.22;73.91;99174.09;125405;1097;22900;-61
2021/05/07 00:28:07;;;;;;;8.93;2.43;;;;;;;8.18;74.09;99177.09;125650;1104;22799;-60
2021/05/07 00:30:38;;;;;;;10.03;2.50;;;;;;;8.16;74.47;99167.71;125525;1104;22731;-60
2021/05/07 00:33:09;;;;;;;7.77;2.00;;;;;;;8.10;74.47;99166.89;125547;1097;22759;-62
2021/05/07 00:35:38;;;;;;;7.23;1.93;;;;;;;8.05;74.53;99162.78;125547;1104;22900;-61
2021/05/07 00:38:08;;;;;;;9.70;2.33;;;;;;;8.04;74.75;99152.16;125507;1104;22770;-59
2021/05/07 00:40:37;;;;;;;7.73;1.73;;;;;;;8.03;74.80;99140.28;125555;1104;22796;-60
2021/05/07 00:43:07;;;;;;;12.03;2.40;;;;;;;8.02;74.76;99152.66;125471;1097;23765;-59
2021/05/07 00:45:36;;;;;;;8.70;1.90;;;;;;;8.03;74.77;99147.84;125474;1104;22926;-59
2021/05/07 00:48:10;;;;;;;7.43;1.93;;;;;;;8.06;74.82;99152.44;125475;1104;24391;-61
2021/05/07 00:50:43;;;;;;;6.60;1.50;;;;;;;8.01;74.93;99159.45;125513;1104;22730;-62
2021/05/07 00:53:12;;;;;;;7.00;1.80;;;;;;;7.95;74.96;99152.30;125616;1096;22755;-62
2021/05/07 00:55:42;;;;;;;5.73;1.48;;;;;;;7.92;74.98;99153.29;125553;1104;22738;-62
2021/05/07 00:58:12;;;;;;;6.63;1.68;;;;;;;7.90;75.16;99148.20;125552;1097;27107;-61
2021/05/07 01:00:42;;;;;;;6.07;1.53;;;;;;;7.87;75.33;99146.41;125506;1096;22813;-59
2021/05/07 01:03:11;;;;;;;6.83;1.50;;;;;;;7.80;75.43;99146.81;125503;1104;22759;-58
2021/05/07 01:05:41;;;;;;;6.07;1.50;;;;;;;7.74;75.42;99145.24;125571;1104;22730;-60
2021/05/07 01:08:13;;;;;;;6.90;1.55;;;;;;;7.71;75.59;99130.30;125633;1096;23040;-58
2021/05/07 01:10:44;;;;;;;7.20;1.90;;;;;;;7.72;75.71;99131.05;125609;1104;22769;-58
2021/05/07 01:13:14;;;;;;;6.60;1.75;;;;;;;7.74;75.73;99134.13;125540;1096;23591;-57
2021/05/07 01:15:43;;;;;;;6.07;1.80;;;;;;;7.75;75.91;99125.30;125537;1104;22901;-59
2021/05/07 01:18:13;;;;;;;7.53;1.80;;;;;;;7.75;75.91;99116.97;125531;1104;22741;-57
2021/05/07 01:20:43;;;;;;;7.83;2.25;;;;;;;7.77;75.57;99108.91;125480;1104;22900;-57
2021/05/07 01:23:14;;;;;;;13.57;3.23;;;;;;;7.81;75.96;99111.47;125804;1104;22759;-55
2021/05/07 01:25:46;;;;;;;13.10;3.87;;;;;;;7.84;75.63;99114.02;125593;1096;26216;-58
2021/05/07 01:28:16;;;;;;;13.03;4.07;;;;;;;7.87;75.73;99107.51;125496;1104;22823;-53
2021/05/07 01:30:48;;;;;;;10.30;3.38;;;;;;;7.86;75.87;99100.41;125721;1104;22806;-54
2021/05/07 01:33:18;;;;;;;10.13;3.20;;;;;;;7.89;75.87;99095.89;125635;1104;22759;-57
2021/05/07 01:35:50;;;;;;;12.40;3.90;;;;;;;7.88;76.30;99095.13;125694;1097;26178;-57
2021/05/07 01:38:19;;;;;;;10.90;3.70;;;;;;;7.87;76.04;99090.83;125910;1104;24719;-53
2021/05/07 01:40:50;;;;;;;11.97;3.00;;;;;;;7.83;75.80;99086.73;125510;1104;22734;-58
2021/05/07 01:43:19;;;;;;;11.20;3.03;;;;;;;7.82;76.04;99088.00;125596;1104;22845;-57
2021/05/07 01:45:49;;;;;;;9.87;2.83;;;;;;;7.82;75.93;99088.00;125552;1104;22764;-57
2021/05/07 01:48:19;;;;;;;12.05;3.30;;;;;;;7.83;76.27;99086.73;125614;1104;23737;-55
2021/05/07 01:50:51;;;;;;;8.75;2.55;;;;;;;7.82;75.96;99082.45;125557;1097;22766;-57
2021/05/07 01:53:20;;;;;;;7.93;2.23;;;;;;;7.80;75.79;99080.13;125555;1096;27217;-57
2021/05/07 01:55:50;;;;;;;8.47;2.17;;;;;;;7.81;76.25;99078.89;125533;1104;22803;-56
2021/05/07 01:58:19;;;;;;;;;;;;;;;7.79;75.91;99078.63;125644;1104;22901;-56
2021/05/07 02:00:49;;;;;;;9.23;2.40;;;;;;;7.79;75.79;99081.40;125550;1104;21589;-56
2021/05/07 02:03:19;;;;;;;10.30;2.90;;;;;;;7.79;76.15;99075.08;125488;1096;22821;-57
2021/05/07 02:05:48;;;;;;;8.33;2.45;;;;;;;7.80;76.18;99074.58;125602;1104;22907;-58
2021/05/07 02:08:18;;;;;;;12.30;3.35;;;;;;;7.81;75.99;99067.02;125410;1097;27236;-55
2021/05/07 02:10:47;;;;;;;12.15;2.23;;;;;;;7.81;76.01;99062.22;125529;1097;25877;-57
2021/05/07 02:13:16;;;;;;;9.53;2.20;;;;;;;7.83;75.97;99068.06;125457;1097;26185;-58
2021/05/07 02:15:46;;;;;;;8.20;1.75;;;;;;;7.85;76.01;99070.34;125470;1097;27091;-57
2021/05/07 02:18:16;;;;;;;8.65;2.15;;;;;;;7.84;76.17;99061.23;125586;1104;22737;-57
2021/05/07 02:20:46;;;;;;;6.70;2.00;;;;;;;7.83;76.14;99056.17;125535;1104;22748;-56
2021/05/07 02:23:16;;;;;;;6.10;1.80;;;;;;;7.82;75.89;99058.18;125621;1097;27345;-56
2021/05/07 02:25:45;;;;;;;6.25;1.65;;;;;;;7.83;76.00;99054.16;125467;1104;22731;-54
2021/05/07 02:28:15;;;;;;;7.57;2.00;;;;;;;7.83;75.97;99051.39;125479;1096;22745;-57
2021/05/07 02:30:46;;;;;;;6.33;1.63;;;;;;;7.82;76.21;99052.63;125601;1104;22755;-56
2021/05/07 02:33:16;;;;;;;6.47;1.93;;;;;;;7.79;76.11;99050.84;125448;1097;24441;-59
2021/05/07 02:35:45;;;;;;;7.30;1.70;;;;;;;7.79;75.96;99038.95;125459;1096;22751;-53
2021/05/07 02:38:15;;;;;;;5.20;1.40;;;;;;;7.80;76.15;99040.49;125510;1104;22820;-54
2021/05/07 02:40:44;;;;;;;6.78;1.53;;;;;;;7.76;76.01;99048.28;125466;1104;22865;-57
2021/05/07 02:43:14;;;;;;;7.53;1.43;;;;;;;7.72;76.05;99054.03;125614;1104;22760;-53
2021/05/07 02:45:43;;;;;;;7.53;1.43;;;;;;;7.70;76.26;99053.76;125691;1104;22734;-56
2021/05/07 02:48:13;;;;;;;5.53;1.37;;;;;;;7.70;76.43;99053.76;125562;1096;27311;-55
2021/05/07 02:50:42;;;;;;;5.90;1.60;;;;;;;7.68;76.27;99039.59;125537;1097;27288;-56
2021/05/07 02:53:12;;;;;;;4.60;1.13;;;;;;;7.63;76.30;99043.09;125472;1104;24147;-58
2021/05/07 02:55:41;;;;;;;;;;;;;;;7.58;76.21;99056.89;125758;1097;26165;-57
2021/05/07 02:58:11;;;;;;;6.53;1.40;;;;;;;7.51;76.33;99043.45;125458;1104;23405;-58
2021/05/07 03:00:41;;;;;;;5.27;1.40;;;;;;;7.52;76.57;99042.18;125472;1104;22755;-58
2021/05/07 03:03:10;;;;;;;10.15;1.70;;;;;;;7.51;76.55;99046.22;125516;1104;22738;-58
2021/05/07 03:05:39;;;;;;;9.27;1.90;;;;;;;7.47;76.42;99035.30;125573;1097;26811;-58
2021/05/07 03:08:09;;;;;;;8.30;1.73;;;;;;;7.49;76.55;99043.17;125537;1104;22901;-58
2021/05/07 03:10:38;;;;;;;9.27;2.03;;;;;;;7.45;76.37;99046.13;125535;1097;27161;-56
2021/05/07 03:13:08;;;;;;;9.00;1.90;;;;;;;7.43;76.49;99045.86;125450;1104;22806;-56
2021/05/07 03:15:38;;;;;;;10.35;1.80;;;;;;;7.45;76.44;99048.17;125617;1104;22738;-56
2021/05/07 03:18:14;;;;;;;6.98;1.38;;;;;;;7.42;76.34;99049.13;125513;1097;25913;-54
2021/05/07 03:20:44;;;;;;;7.00;1.40;;;;;;;7.41;76.51;99044.84;125561;1104;22755;-58
2021/05/07 03:23:14;;;;;;;6.98;1.40;;;;;;;7.41;76.51;99048.36;125635;1104;22817;-59
2021/05/07 03:25:45;;;;;;;7.98;1.58;;;;;;;7.42;76.70;99051.91;125489;1097;22729;-56
2021/05/07 03:28:14;;;;;;;6.60;1.50;;;;;;;7.38;76.59;99049.34;125515;1097;26178;-57
2021/05/07 03:30:43;;;;;;;6.27;1.30;;;;;;;7.37;76.71;99049.84;125475;1104;22742;-57
2021/05/07 03:33:13;;;;;;;7.13;2.27;;;;;;;7.37;76.34;99052.62;125489;1096;27816;-56
2021/05/07 03:35:42;;;;;;;7.50;2.05;;;;;;;7.35;76.60;99056.63;125421;1097;28168;-57
2021/05/07 03:38:11;;;;;;;8.07;1.87;;;;;;;7.38;76.80;99051.35;125643;1104;22741;-55
2021/05/07 03:40:41;;;;;;;9.53;1.87;;;;;;;7.38;76.90;99054.90;125581;1104;22779;-56
2021/05/07 03:43:10;;;;;;;5.90;1.20;;;;;;;7.38;76.62;99060.45;125557;1104;24391;-58
2021/05/07 03:45:39;;;;;;;5.70;1.23;;;;;;;7.39;76.77;99056.41;125611;1097;22904;-57
2021/05/07 03:48:16;;;;;;;3.73;1.10;;;;;;;7.32;76.59;99065.17;125536;1097;27189;-57
2021/05/07 03:50:48;;;;;;;4.03;1.10;;;;;;;7.29;76.91;99061.34;125618;1097;22741;-58
2021/05/07 03:53:18;;;;;;;4.37;1.07;;;;;;;7.30;76.93;99062.13;125491;1104;22754;-57
2021/05/07 03:55:49;;;;;;;5.97;1.50;;;;;;;7.30;77.07;99060.08;125680;1104;22823;-58
2021/05/07 03:58:19;;;;;;;4.35;1.30;;;;;;;7.31;76.96;99069.95;125554;1104;22872;-56
2021/05/07 04:00:49;;;;;;;6.60;1.23;;;;;;;7.33;77.21;99073.01;125589;1096;22758;-57
2021/05/07 04:03:18;;;;;;;4.15;1.30;;;;;;;7.36;77.23;99076.83;125724;1104;24163;-58
2021/05/07 04:05:51;;;;;;;5.37;1.20;;;;;;;7.36;77.07;99087.94;125540;1104;22907;-57
2021/05/07 04:08:22;;;;;;;6.43;1.00;;;;;;;7.34;76.90;99084.88;125709;1104;22754;-54
2021/05/07 04:10:55;;;;;;;3.20;0.90;;;;;;;7.35;76.99;99078.84;125483;1097;25954;-58
2021/05/07 04:24:25;;;;;;;2.77;0.60;;;;;;;7.28;77.00;99078.50;125541;1096;26843;-59
2021/05/07 04:26:55;;;;;;;3.00;0.70;;;;;;;7.24;76.93;99087.01;125472;1098;22768;-58
2021/05/07 04:29:25;;;;;;;3.67;0.63;;;;;;;7.25;77.05;99085.00;125450;1104;22770;-59
2021/05/07 04:31:57;;;;;;;2.70;0.57;;;;;;;7.26;77.07;99089.32;125529;1096;22751;-59
2021/05/07 04:34:26;;;;;;;5.37;0.70;;;;;;;7.28;77.26;99089.59;125532;1097;22771;-60
2021/05/07 04:36:56;;;;;;;3.20;0.73;;;;;;;7.28;77.30;99093.12;125581;1096;25932;-60
2021/05/07 04:39:25;;;;;;;3.95;0.80;;;;;;;7.30;77.29;99089.88;125533;1104;22792;-60
2021/05/07 04:41:54;;;;;;;2.90;0.80;;;;;;;7.32;77.33;99096.45;125485;1096;26299;-61
2021/05/07 04:44:23;;;;;;;3.90;0.80;;;;;;;7.33;77.63;99097.22;125505;1096;27588;-61
2021/05/07 04:46:53;;;;;;;4.43;0.80;;;;;;;7.33;77.34;99095.22;125440;1104;22809;-62
2021/05/07 04:49:22;;;;;;;2.90;0.90;;;;;;;7.33;77.41;99106.32;125616;1096;26207;-60
2021/05/07 04:51:53;;;;;;;3.80;0.90;;;;;;;7.33;77.43;99108.33;125557;1104;22795;-58
2021/05/07 04:54:23;;;;;;;5.07;1.10;;;;;;;7.33;77.56;99111.88;125535;1104;22734;-56
2021/05/07 04:56:53;;;;;;;4.47;1.07;;;;;;;7.34;77.41;99115.42;125520;1104;23119;-56
2021/05/07 04:59:22;;;;;;;6.97;1.20;;;;;;;7.35;77.54;99117.70;125705;1104;22747;-57
2021/05/07 05:01:52;;;;;;;6.50;1.30;;;;;;;7.36;77.47;99124.03;125435;1097;26668;-59
2021/05/07 05:04:21;;;;;;;5.55;1.25;;;;;;;7.39;77.60;99128.60;125506;1096;29948;-60
2021/05/07 05:06:50;;;;;;;6.53;1.63;;;;;;;7.39;77.48;99128.60;125763;1101;22910;-61
2021/05/07 05:09:20;;;;;;;6.73;1.53;;;;;;;7.35;77.35;99145.47;126255;1096;23976;-62
2021/05/07 05:11:50;;;;;;;6.93;1.60;;;;;;;7.35;77.56;99139.15;126000;1104;22751;-60
2021/05/07 05:14:20;;;;;;;7.05;1.65;;;;;;;7.33;77.62;99141.64;126111;1097;25735;-61
2021/05/07 05:16:49;;;;;;;6.73;1.27;;;;;;;7.31;77.61;99133.03;126064;1096;24393;-61
2021/05/07 05:19:19;;;;;;;5.28;1.38;;;;;;;7.29;78.19;99130.75;125790;1104;22751;-60
2021/05/07 05:21:48;;;;;;;7.70;1.40;;;;;;;7.31;77.90;99133.03;125994;1096;22905;-61
2021/05/07 05:24:18;;;;;;;7.73;1.83;;;;;;;7.30;77.66;99132.27;125953;1104;22777;-60
2021/05/07 05:26:47;;;;;;;5.30;1.30;;;;;;;7.28;77.98;99143.09;125816;1104;22775;-61
2021/05/07 05:29:17;;;;;;;7.98;1.58;;;;;;;7.27;78.13;99132.47;126347;1096;25854;-59
2021/05/07 05:31:46;;;;;;;7.50;1.70;;;;;;;7.31;78.25;99136.58;125857;1104;22754;-61
2021/05/07 05:34:16;;;;;;;6.57;1.90;;;;;;;7.34;78.28;99132.08;125836;1103;22745;-60
2021/05/07 05:36:46;;;;;;;7.55;1.70;;;;;;;7.35;78.54;99136.37;126268;1097;26327;-60
2021/05/07 05:39:17;;;;;;;6.77;1.73;;;;;;;7.39;78.47;99147.30;125868;1104;22761;-59
2021/05/07 05:41:46;;;;;;;6.98;1.75;;;;;;;7.43;78.35;99151.38;125919;1104;22735;-60
2021/05/07 05:44:16;;;;;;;5.93;1.50;;;;;;;7.47;78.30;99151.19;126235;1104;22707;-59
2021/05/07 05:46:45;;;;;;;9.58;2.10;;;;;;;7.51;78.16;99148.97;125832;1104;22942;-59
2021/05/07 05:49:15;;;;;;;8.78;1.70;;;;;;;7.56;78.56;99153.82;126181;1099;26276;-58
2021/05/07 05:51:44;;;;;;;7.67;1.57;;;;;;;7.60;78.10;99166.26;125909;1104;22834;-59
2021/05/07 05:54:13;;;;;;;5.53;1.27;;;;;;;7.60;77.86;99166.26;125937;1104;22750;-59
2021/05/07 05:56:43;;;;;;;6.67;1.57;;;;;;;7.61;77.83;99169.81;125930;1104;22748;-60
2021/05/07 05:59:12;;;;;;;6.40;1.23;;;;;;;7.57;77.69;99174.80;125859;1104;22764;-59
2021/05/07 06:01:48;;;;;;;6.43;1.30;;;;;;;7.54;77.96;99173.75;125837;1104;23248;-59
2021/05/07 06:04:18;;;;;;;6.00;1.30;;;;;;;7.56;77.94;99176.04;125930;1104;22917;-58
2021/05/07 06:06:48;;;;;;;6.10;1.70;;;;;;;7.51;77.91;99174.70;125978;1104;22841;-58
2021/05/07 06:09:17;;;;;;;6.20;1.43;;;;;;;7.53;78.08;99177.02;126021;1097;22707;-60
2021/05/07 06:11:47;;;;;;;6.90;1.60;;;;;;;7.50;78.09;99184.30;125942;1104;22886;-59
2021/05/07 06:14:18;;;;;;;7.78;1.35;;;;;;;7.50;77.98;99180.75;125923;1104;22748;-58
2021/05/07 06:16:49;;;;;;;8.70;2.13;;;;;;;7.48;78.05;99189.58;125914;1104;22774;-58
2021/05/07 06:19:18;;;;;;;7.17;2.17;;;;;;;7.47;78.29;99190.81;125912;1104;22820;-59
2021/05/07 06:21:48;;;;;;;9.53;2.10;;;;;;;7.46;78.30;99183.73;125940;1104;22809;-58
2021/05/07 06:24:17;;;;;;;7.70;2.23;;;;;;;7.49;78.73;99182.76;125870;1104;22826;-59
2021/05/07 06:26:49;;;;;;;10.00;2.03;;;;;;;7.51;78.54;99179.52;125873;1104;25459;-60
2021/05/07 06:29:19;;;;;;;8.60;2.40;;;;;;;7.50;78.64;99183.53;125996;1104;22796;-60
2021/05/07 06:31:53;;;;;;;8.85;2.45;;;;;;;7.53;78.71;99188.13;126055;1096;24141;-59
2021/05/07 06:34:27;;;;;;;6.53;1.67;;;;;;;7.54;79.00;99193.20;125861;1104;22796;-59
2021/05/07 06:37:00;;;;;;;8.30;2.30;;;;;;;7.54;78.73;99195.20;126026;1104;22761;-60
2021/05/07 06:39:34;;;;;;;8.80;2.50;;;;;;;7.56;79.05;99201.03;125914;1104;22803;-59
2021/05/07 06:42:04;;;;;;;9.83;2.93;;;;;;;7.55;78.66;99208.63;125900;1104;24376;-60
2021/05/07 06:44:36;;;;;;;10.30;2.60;;;;;;;7.54;78.76;99204.30;125763;1104;24858;-59
2021/05/07 06:47:05;;;;;;;;;;;;;;;7.54;79.00;99204.30;125708;1104;24429;-60
2021/05/07 06:49:38;;;;;;;10.17;2.20;;;;;;;7.54;78.84;99220.20;125599;1104;21502;-59
2021/05/07 06:52:11;;;;;;;7.77;1.70;;;;;;;7.50;78.46;99220.41;125929;1100;26206;-59
2021/05/07 06:54:55;;;;;;;11.47;1.70;;;;;;;7.51;78.19;99226.73;126033;1104;22771;-58
2021/05/07 06:57:38;;;;;;;8.43;1.60;;;;;;;7.53;78.19;99227.02;125835;1096;22794;-59
2021/05/07 07:00:11;;;;;;;7.47;1.80;;;;;;;7.55;78.47;99230.07;125773;1104;22742;-59
2021/05/07 07:02:43;;;;;;;8.07;2.10;;;;;;;7.54;78.30;99226.52;126193;1104;24434;-59
2021/05/07 07:05:19;;;;;;;7.50;2.40;;;;;;;7.54;78.56;99225.75;126158;1096;25780;-58
2021/05/07 07:07:51;;;;;;;9.27;2.50;;;;;;;7.55;78.51;99219.73;125984;1096;22775;-59
2021/05/07 07:10:27;;;;;;;8.40;2.40;;;;;;;7.59;78.45;99227.86;125948;1104;22739;-59
2021/05/07 07:12:58;;;;;;;7.93;2.00;;;;;;;7.60;78.34;99226.59;125977;1104;22754;-60
2021/05/07 07:15:31;;;;;;;8.28;1.70;;;;;;;7.59;78.09;99223.07;125834;1104;25606;-58
2021/05/07 07:18:03;;;;;;;6.77;1.87;;;;;;;7.62;77.97;99221.32;125930;1104;22785;-60
2021/05/07 07:20:35;;;;;;;8.90;2.30;;;;;;;7.64;78.14;99221.59;125811;1096;27317;-60
2021/05/07 07:23:12;;;;;;;9.27;2.20;;;;;;;7.63;77.98;99218.08;125814;1104;22765;-59
2021/05/07 07:25:47;;;;;;;6.97;1.87;;;;;;;7.65;78.15;99226.69;125880;1104;24407;-59
2021/05/07 07:28:18;;;;;;;6.33;1.60;;;;;;;7.69;78.10;99226.48;125850;1104;22749;-60
2021/05/07 07:30:50;;;;;;;9.83;2.20;;;;;;;7.73;78.23;99225.03;125779;1104;22772;-60
2021/05/07 07:33:23;;;;;;;9.40;1.85;;;;;;;7.79;77.67;99228.66;125712;1104;22764;-59
2021/05/07 07:35:53;;;;;;;9.65;2.28;;;;;;;7.80;78.04;99224.61;126182;1104;22766;-59
2021/05/07 07:38:24;;;;;;;6.45;1.95;;;;;;;7.80;77.71;99234.98;125854;1096;24394;-60
2021/05/07 07:40:53;;;;;;;;;;;;;;;7.80;77.75;99246.09;125760;1104;22728;-59
2021/05/07 07:43:26;;;;;;;6.97;2.37;;;;;;;7.82;78.15;99243.59;125782;1104;21470;-60
2021/05/07 07:45:59;;;;;;;6.87;2.37;;;;;;;7.85;78.09;99246.16;125876;1104;22761;-64
2021/05/07 07:48:28;;;;;;;10.55;2.75;;;;;;;7.90;78.67;99258.61;125936;1097;27525;-60
2021/05/07 07:50:58;;;;;;;15.27;5.43;;;;;;;7.94;78.59;99256.39;125707;1097;26207;-60
2021/05/07 07:53:28;;;;;;;10.55;3.23;;;;;;;8.00;78.24;99255.22;125673;1104;22750;-60
2021/05/07 07:56:04;;;;;;;8.35;2.15;;;;;;;8.03;78.17;99247.91;125953;1104;22855;-59
2021/05/07 07:58:34;;;;;;;8.63;2.90;;;;;;;8.06;78.19;99242.16;125807;1104;22758;-59
2021/05/07 08:01:07;;;;;;;7.47;2.63;;;;;;;8.10;78.03;99241.94;125804;1104;22899;-60
2021/05/07 08:03:38;;;;;;;7.30;2.00;;;;;;;8.15;77.54;99249.60;126013;1097;24333;-59
2021/05/07 08:06:11;;;;;;;8.07;1.97;;;;;;;8.14;77.57;99236.94;126145;1104;22985;-60
2021/05/07 08:08:43;;;;;;;5.55;1.85;;;;;;;8.13;77.41;99238.95;125998;1104;22888;-60
2021/05/07 08:11:14;;;;;;;8.50;2.10;;;;;;;8.09;77.67;99243.95;125805;1104;22913;-59
2021/05/07 08:13:44;;;;;;;8.13;1.58;;;;;;;8.11;77.82;99249.05;126540;1104;22796;-59
2021/05/07 08:16:14;;;;;;;7.20;1.80;;;;;;;8.10;77.76;99266.95;125947;1104;22771;-60
2021/05/07 08:18:44;;;;;;;6.97;1.93;;;;;;;8.11;77.99;99265.72;126007;1104;23022;-60
2021/05/07 08:21:14;;;;;;;5.50;1.33;;;;;;;8.14;77.89;99273.84;125797;1104;23362;-59
2021/05/07 08:23:49;;;;;;;6.83;1.90;;;;;;;8.13;77.56;99282.68;125908;1104;24171;-60
2021/05/07 08:26:22;;;;;;;4.73;1.23;;;;;;;8.10;77.62;99287.19;125774;1104;22768;-60
2021/05/07 08:28:54;;;;;;;5.50;1.40;;;;;;;8.08;77.85;99281.34;126024;1104;23370;-61
2021/05/07 08:31:24;;;;;;;6.43;1.20;;;;;;;8.10;77.21;99291.98;126085;1104;22870;-59
2021/05/07 08:34:01;;;;;;;6.20;1.45;;;;;;;8.09;77.73;99287.66;125759;1096;22769;-59
2021/05/07 08:36:31;;;;;;;6.73;1.57;;;;;;;8.13;77.62;99291.77;125772;1104;22809;-58
2021/05/07 08:39:01;;;;;;;7.88;2.13;;;;;;;8.16;77.17;99303.94;125860;1097;22900;-59
2021/05/07 08:41:32;;;;;;;7.23;1.73;;;;;;;8.16;77.02;99309.49;125752;1104;23354;-59
2021/05/07 08:44:00;;;;;;;;;;;;;;;8.09;76.58;99321.78;126036;1104;22774;-60
2021/05/07 08:46:32;;;;;;;5.70;1.30;;;;;;;7.96;76.15;99315.03;126122;1104;21545;-59
2021/05/07 08:49:02;;;;;;;7.75;1.73;;;;;;;7.85;76.83;99314.86;125969;1096;26220;-59
2021/05/07 08:51:33;;;;;;;6.93;1.40;;;;;;;7.79;77.10;99328.67;125788;1104;25788;-60
2021/05/07 08:54:02;;;;;;;7.75;1.90;;;;;;;7.74;77.17;99336.94;125949;1104;22713;-58
2021/05/07 08:56:35;;;;;;;5.10;1.50;;;;;;;7.67;77.00;99338.09;126060;1096;22916;-60
2021/05/07 08:59:14;;;;;;;8.77;1.87;;;;;;;7.65;77.08;99340.58;125853;1104;22925;-61
2021/05/07 09:01:50;;;;;;;7.03;1.70;;;;;;;7.64;77.39;99338.27;125706;1097;27135;-61
2021/05/07 09:04:22;;;;;;;8.30;2.25;;;;;;;7.66;77.41;99336.55;125779;1096;27183;-60
2021/05/07 09:06:53;;;;;;;7.20;2.20;;;;;;;;;;126028;1104;22782;-61
2021/05/07 09:09:25;;;;;;;10.67;2.97;;;;;;;;;;125967;1096;24390;-60
2021/05/07 09:12:04;;;;;;;8.63;2.27;;;;;;;7.85;77.39;99343.42;126047;1096;22916;-61
2021/05/07 09:14:48;;;;;;;8.60;2.37;;;;;;;7.90;77.10;99344.76;125903;1104;22775;-63
2021/05/07 09:17:27;;;;;;;8.87;2.80;;;;;;;7.93;76.87;99352.89;125914;1096;26226;-59
2021/05/07 09:20:14;;;;;;;7.73;2.60;;;;;;;7.96;77.20;99351.94;125851;1096;27141;-61
2021/05/07 09:22:50;;;;;;;;;;;;;;;8.01;76.99;99350.46;125994;1104;22841;-61
2021/05/07 09:25:26;;;;;;;8.40;2.40;;;;;;;8.01;76.89;99362.35;125864;1104;21467;-61
2021/05/07 09:28:11;;;;;;;9.03;2.43;;;;;;;8.03;76.88;99372.98;125825;1104;22765;-61
2021/05/07 09:30:45;;;;;;;11.23;2.78;;;;;;;8.05;76.93;99368.48;125974;1096;25762;-62
2021/05/07 09:33:17;;;;;;;8.97;2.63;;;;;;;8.05;76.80;99371.26;125797;1097;27310;-60
2021/05/07 09:35:47;;;;;;;8.07;2.67;;;;;;;8.06;76.67;99374.81;125937;1104;24390;-60
2021/05/07 09:38:20;;;;;;;10.70;2.43;;;;;;;8.05;76.20;99390.72;125873;1104;24439;-62
2021/05/07 09:40:51;;;;;;;7.60;2.50;;;;;;;8.07;76.62;99388.22;125832;1096;27459;-60
2021/05/07 09:43:23;;;;;;;8.63;2.83;;;;;;;8.10;76.27;99392.05;125873;1104;24405;-60
2021/05/07 09:45:54;;;;;;;9.15;2.60;;;;;;;8.16;76.40;99390.89;126094;1096;25707;-61
2021/05/07 09:48:25;;;;;;;11.70;3.23;;;;;;;8.26;76.52;99386.00;126035;1096;26479;-60
2021/05/07 09:51:01;;;;;;;9.17;2.63;;;;;;;8.37;76.47;99390.95;126234;1104;22765;-60
2021/05/07 09:53:34;;;;;;;10.03;3.50;;;;;;;8.46;76.27;99397.14;125902;1104;22749;-61
2021/05/07 09:56:13;;;;;;;8.00;2.43;;;;;;;8.50;76.08;99394.17;126072;1104;25628;-60
2021/05/07 09:58:43;;;;;;;9.43;2.53;;;;;;;8.55;75.86;99399.80;125746;1104;22774;-61
2021/05/07 10:01:15;;;;;;;10.93;2.63;;;;;;;8.59;75.68;99417.05;126071;1104;22768;-61
2021/05/07 10:03:44;;;;;;;10.08;3.08;;;;;;;8.59;75.35;99419.84;125836;1104;22761;-61
2021/05/07 10:06:17;;;;;;;8.55;2.53;;;;;;;8.58;75.42;99421.11;125847;1097;27103;-58
2021/05/07 10:08:51;;;;;;;5.77;2.17;;;;;;;8.57;75.32;99419.56;125945;1104;22769;-58
2021/05/07 10:11:23;;;;;;;8.33;2.47;;;;;;;8.55;75.38;99424.84;125903;1097;25758;-58
2021/05/07 10:14:08;;;;;;;9.43;2.40;;;;;;;8.56;75.68;99423.61;126026;1104;22780;-59
2021/05/07 10:16:53;;;;;;;9.07;1.87;;;;;;;8.56;75.11;99420.83;126134;1104;22819;-58
2021/05/07 10:19:24;;;;;;;7.35;2.10;;;;;;;8.59;75.05;99425.41;126060;1097;27254;-59
2021/05/07 10:22:04;;;;;;;9.38;2.03;;;;;;;8.58;75.30;99428.68;125810;1104;22830;-58
2021/05/07 10:24:48;;;;;;;8.30;2.20;;;;;;;8.58;75.43;99418.33;125960;1096;27648;-57
2021/05/07 10:27:19;;;;;;;9.47;2.40;;;;;;;8.63;75.20;99425.96;125876;1097;27924;-58
2021/05/07 10:30:03;;;;;;;7.00;2.17;;;;;;;8.74;75.16;99426.13;125784;1096;25876;-58
2021/05/07 10:32:35;;;;;;;4.60;1.33;;;;;;;8.85;74.43;99426.28;126110;1097;25871;-59
2021/05/07 10:37:55;;;;;;;6.70;1.70;;;;;;;9.05;73.82;99427.50;125889;1096;25876;-59
2021/05/07 10:40:33;;;;;;;5.00;1.80;;;;;;;9.11;73.69;99429.10;125698;1096;22774;-59
2021/05/07 10:43:06;;;;;;;5.77;1.70;;;;;;;9.16;73.29;99424.86;125801;1096;22888;-59
2021/05/07 10:45:51;;;;;;;5.33;1.40;;;;;;;9.22;73.13;99420.89;125838;1104;22750;-60
2021/05/07 10:48:26;;;;;;;7.93;1.73;;;;;;;9.29;73.24;99417.66;125897;1096;25707;-59
2021/05/07 10:51:03;;;;;;;5.27;1.50;;;;;;;9.46;74.18;99412.26;125964;1104;22803;-59
2021/05/07 10:53:38;;;;;;;6.90;2.00;;;;;;;9.65;73.12;99405.11;126162;1104;22751;-59
2021/05/07 10:56:20;;;;;;;7.60;1.90;;;;;;;9.76;72.69;99410.79;126203;1104;22744;-59
2021/05/07 10:58:53;;;;;;;7.90;1.97;;;;;;;9.81;72.40;99412.11;125887;1104;22846;-59
2021/05/07 11:01:27;;;;;;;6.93;1.93;;;;;;;9.92;73.13;99414.97;126160;1104;22732;-59
2021/05/07 11:04:05;;;;;;;6.63;2.07;;;;;;;9.97;71.81;99417.05;125915;1104;22885;-59
2021/05/07 11:06:37;;;;;;;7.93;2.43;;;;;;;9.92;71.89;99415.73;126145;1104;22761;-59
2021/05/07 11:09:21;;;;;;;5.90;1.70;;;;;;;9.93;71.64;99416.52;126210;1104;22761;-60
2021/05/07 11:11:52;;;;;;;10.07;2.40;;;;;;;9.98;72.01;99418.56;126195;1096;27278;-59
2021/05/07 11:14:24;;;;;;;4.30;1.60;;;;;;;10.02;71.17;99427.47;125997;1096;27112;-59
2021/05/07 11:16:54;;;;;;;6.07;1.73;;;;;;;10.08;71.77;99429.05;125872;1104;22867;-60
2021/05/07 11:19:26;;;;;;;;;;;;;;;10.24;71.21;99433.27;126049;1104;23346;-59
2021/05/07 11:21:59;;;;;;;7.10;2.17;;;;;;;10.27;71.05;99430.23;125852;1104;22473;-59
2021/05/07 11:24:32;;;;;;;8.10;2.53;;;;;;;10.31;71.09;99427.21;126055;1104;22809;-59
2021/05/07 11:27:18;;;;;;;8.40;2.57;;;;;;;10.30;70.42;99426.47;126028;1104;22729;-59
2021/05/07 11:29:48;;;;;;;9.57;2.57;;;;;;;10.36;70.88;99409.76;125907;1097;24816;-60
2021/05/07 11:32:18;;;;;;;;;;;;;;;10.38;69.85;99418.39;126055;1104;22913;-60
2021/05/07 11:34:53;;;;;;;7.50;2.37;;;;;;;10.42;70.52;99416.91;126030;1104;21471;-60
2021/05/07 11:37:23;;;;;;;10.53;2.90;;;;;;;10.50;69.63;99417.20;126040;1104;22760;-60
2021/05/07 11:39:59;;;;;;;;;;;;;;;10.56;69.89;99415.20;126360;1104;23838;-61
2021/05/07 11:42:31;;;;;;;8.50;2.80;;;;;;;10.62;69.81;99413.20;126395;1104;21475;-59
2021/05/07 11:45:02;;;;;;;7.93;2.83;;;;;;;10.72;69.36;99403.36;126072;1096;25847;-61
2021/05/07 11:47:32;;;;;;;7.50;2.80;;;;;;;10.79;68.61;99404.91;126422;1104;22892;-60
2021/05/07 11:50:01;;;;;;;;;;;;;;;10.88;68.66;99404.71;126005;1097;26260;-60
2021/05/07 11:52:36;;;;;;;318.20;197.27;;;;;;;10.95;67.61;99418.18;126269;1104;21562;-60
2021/05/07 11:55:08;;;;;;;76.20;42.63;;;;;;;10.97;68.17;99401.69;126144;1104;23242;-62
2021/05/07 11:57:38;;;;;;;23.83;10.40;;;;;;;10.96;67.58;99403.73;125830;1104;22736;-60
2021/05/07 12:00:10;;;;;;;8.33;3.48;;;;;;;10.89;66.34;99401.41;125823;1097;25851;-60
2021/05/07 12:02:40;;;;;;;7.20;2.57;;;;;;;10.88;67.53;99402.69;126125;1097;26357;-60
2021/05/07 12:05:13;;;;;;;6.70;2.10;;;;;;;10.93;67.21;99409.54;126455;1103;25449;-60
2021/05/07 12:07:47;;;;;;;6.85;2.10;;;;;;;10.90;66.90;99407.77;126504;1104;22857;-59